createdAt,value
2018-09-01T00:01:57.986Z,11.30
2018-09-01T00:04:26.074Z,11.20
2018-09-01T00:06:54.545Z,11.10
2018-09-01T00:09:22.499Z,11.10
2018-09-01T00:11:50.577Z,11.00
2018-09-01T00:14:18.633Z,11.00
2018-09-01T00:16:46.543Z,11.00
2018-09-01T00:19:14.688Z,10.90
2018-09-01T00:21:42.479Z,10.90
2018-09-01T00:24:11.949Z,10.90
2018-09-01T00:26:41.854Z,10.80
2018-09-01T00:29:10.092Z,10.80
2018-09-01T00:31:38.184Z,10.80
2018-09-01T00:34:06.474Z,10.70
2018-09-01T00:36:35.010Z,10.70
2018-09-01T00:39:06.697Z,10.60
2018-09-01T00:41:35.350Z,10.60
2018-09-01T00:44:03.806Z,10.70
2018-09-01T00:46:32.636Z,10.60
2018-09-01T00:49:00.858Z,10.60
2018-09-01T00:51:28.898Z,10.60
2018-09-01T00:53:57.802Z,10.60
2018-09-01T00:56:25.619Z,10.60
2018-09-01T00:58:53.841Z,10.60
2018-09-01T01:01:22.531Z,10.50
2018-09-01T01:03:50.738Z,10.60
2018-09-01T01:06:18.652Z,10.40
2018-09-01T01:08:46.952Z,10.40
2018-09-01T01:11:15.715Z,10.30
2018-09-01T01:13:43.842Z,10.20
2018-09-01T01:16:11.862Z,10.20
2018-09-01T01:18:40.307Z,10.10
2018-09-01T01:21:08.532Z,10.00
2018-09-01T01:23:36.579Z,10.00
2018-09-01T01:26:04.901Z,10.00
2018-09-01T01:28:33.210Z,9.90
2018-09-01T01:31:01.927Z,9.90
2018-09-01T01:33:30.564Z,9.90
2018-09-01T01:35:58.666Z,9.90
2018-09-01T01:38:26.970Z,9.80
2018-09-01T01:40:55.234Z,9.80
2018-09-01T01:43:23.375Z,9.80
2018-09-01T01:45:51.680Z,9.80
2018-09-01T01:48:20.258Z,9.80
2018-09-01T01:50:48.498Z,9.70
2018-09-01T01:53:16.848Z,9.70
2018-09-01T01:55:45.963Z,9.70
2018-09-01T01:58:14.060Z,9.70
2018-09-01T02:00:42.335Z,9.70
2018-09-01T02:03:11.009Z,9.60
2018-09-01T02:05:39.256Z,9.60
2018-09-01T02:08:07.628Z,9.60
2018-09-01T02:10:35.865Z,9.60
2018-09-01T02:13:04.183Z,9.60
2018-09-01T02:15:32.399Z,9.70
2018-09-01T02:18:00.382Z,9.70
2018-09-01T02:20:28.600Z,9.70
2018-09-01T02:22:56.687Z,9.80
2018-09-01T02:25:25.244Z,9.80
2018-09-01T02:27:53.632Z,9.80
2018-09-01T02:30:21.948Z,9.80
2018-09-01T02:32:49.965Z,9.80
2018-09-01T02:35:18.271Z,9.80
2018-09-01T02:37:46.873Z,9.70
2018-09-01T02:40:15.051Z,9.80
2018-09-01T02:42:43.410Z,9.80
2018-09-01T02:45:11.509Z,9.80
2018-09-01T02:47:39.978Z,9.70
2018-09-01T02:50:08.171Z,9.70
2018-09-01T02:52:36.450Z,9.70
2018-09-01T02:55:04.823Z,9.60
2018-09-01T02:57:33.164Z,9.60
2018-09-01T03:00:01.177Z,9.50
2018-09-01T03:02:49.130Z,9.50
2018-09-01T03:05:17.157Z,9.50
2018-09-01T03:07:45.233Z,9.50
2018-09-01T03:10:13.191Z,9.40
2018-09-01T03:12:41.198Z,9.40
2018-09-01T03:15:09.786Z,9.30
2018-09-01T03:17:38.111Z,9.30
2018-09-01T03:20:06.987Z,9.30
2018-09-01T03:22:35.105Z,9.30
2018-09-01T03:25:02.991Z,9.30
2018-09-01T03:27:30.946Z,9.20
2018-09-01T03:29:59.530Z,9.20
2018-09-01T03:32:27.699Z,9.20
2018-09-01T03:34:55.612Z,9.10
2018-09-01T03:37:23.485Z,9.10
2018-09-01T03:39:52.313Z,9.10
2018-09-01T03:42:20.483Z,9.10
2018-09-01T03:44:48.535Z,9.10
2018-09-01T03:47:17.053Z,9.00
2018-09-01T03:49:45.411Z,9.00
2018-09-01T03:52:13.854Z,9.00
2018-09-01T03:54:42.328Z,9.00
2018-09-01T03:57:10.710Z,9.00
2018-09-01T03:59:38.963Z,9.00
2018-09-01T04:02:07.385Z,9.00
2018-09-01T04:04:36.003Z,9.00
2018-09-01T04:07:04.275Z,9.00
2018-09-01T04:09:32.947Z,9.00
2018-09-01T04:12:00.988Z,8.90
2018-09-01T04:14:29.222Z,8.90
2018-09-01T04:16:57.362Z,8.90
2018-09-01T04:19:25.251Z,8.90
2018-09-01T04:21:53.574Z,8.80
2018-09-01T04:24:21.676Z,8.90
2018-09-01T04:26:49.657Z,8.90
2018-09-01T04:29:18.388Z,8.80
2018-09-01T04:31:47.285Z,8.90
2018-09-01T04:34:15.571Z,8.90
2018-09-01T04:36:44.412Z,8.90
2018-09-01T04:39:13.688Z,8.90
2018-09-01T04:41:42.516Z,8.90
2018-09-01T04:44:11.382Z,9.00
2018-09-01T04:46:40.585Z,8.90
2018-09-01T04:49:08.975Z,9.00
2018-09-01T04:51:37.116Z,9.00
2018-09-01T04:54:05.526Z,9.00
2018-09-01T04:56:34.090Z,9.10
2018-09-01T04:59:02.584Z,9.20
2018-09-01T05:01:30.791Z,9.20
2018-09-01T05:03:59.093Z,9.30
2018-09-01T05:06:27.363Z,9.30
2018-09-01T05:08:55.592Z,9.40
2018-09-01T05:11:24.340Z,9.50
2018-09-01T05:13:52.493Z,9.60
2018-09-01T05:16:22.278Z,9.80
2018-09-01T05:18:51.175Z,9.90
2018-09-01T05:21:19.422Z,10.00
2018-09-01T05:23:47.815Z,10.10
2018-09-01T05:26:16.005Z,10.20
2018-09-01T05:28:44.643Z,10.40
2018-09-01T05:31:12.628Z,10.50
2018-09-01T05:33:46.527Z,10.50
2018-09-01T05:36:15.397Z,10.60
2018-09-01T05:38:44.167Z,10.70
2018-09-01T05:41:12.888Z,10.80
2018-09-01T05:43:41.584Z,10.80
2018-09-01T05:46:09.922Z,10.90
2018-09-01T05:48:43.922Z,10.90
2018-09-01T05:51:12.377Z,10.90
2018-09-01T05:56:25.872Z,11.10
2018-09-01T05:58:54.287Z,11.20
2018-09-01T06:01:23.278Z,11.30
2018-09-01T06:03:52.258Z,11.30
2018-09-01T06:06:20.807Z,11.40
2018-09-01T06:08:49.868Z,11.50
2018-09-01T06:11:18.212Z,11.60
2018-09-01T06:13:47.013Z,11.70
2018-09-01T06:16:16.387Z,11.70
2018-09-01T06:18:45.394Z,11.80
2018-09-01T06:21:14.216Z,11.80
2018-09-01T06:23:42.480Z,11.90
2018-09-01T06:26:11.730Z,11.90
2018-09-01T06:28:43.674Z,12.00
2018-09-01T06:31:11.912Z,12.00
2018-09-01T06:33:40.138Z,12.00
2018-09-01T06:36:08.486Z,12.10
2018-09-01T06:38:36.558Z,12.20
2018-09-01T06:41:04.908Z,12.20
2018-09-01T06:43:32.875Z,12.20
2018-09-01T06:46:00.992Z,12.20
2018-09-01T06:48:29.493Z,12.30
2018-09-01T06:50:58.123Z,12.30
2018-09-01T06:53:26.480Z,12.40
2018-09-01T06:55:54.719Z,12.40
2018-09-01T06:58:22.544Z,12.50
2018-09-01T07:00:51.408Z,12.50
2018-09-01T07:03:19.557Z,12.50
2018-09-01T07:05:47.619Z,12.60
2018-09-01T07:08:16.200Z,12.60
2018-09-01T07:10:44.194Z,12.60
2018-09-01T07:13:12.601Z,12.70
2018-09-01T07:15:40.654Z,12.70
2018-09-01T07:18:09.075Z,12.80
2018-09-01T07:20:37.416Z,12.90
2018-09-01T07:23:05.371Z,13.00
2018-09-01T07:25:35.375Z,13.00
2018-09-01T07:28:03.684Z,13.10
2018-09-01T07:30:32.207Z,13.20
2018-09-01T07:33:00.228Z,13.20
2018-09-01T07:35:28.962Z,13.30
2018-09-01T07:37:57.501Z,13.30
2018-09-01T07:40:25.448Z,13.40
2018-09-01T07:42:54.057Z,13.40
2018-09-01T07:45:22.270Z,13.40
2018-09-01T07:47:51.990Z,13.50
2018-09-01T07:50:20.423Z,13.50
2018-09-01T07:52:49.171Z,13.60
2018-09-01T07:55:17.701Z,13.70
2018-09-01T07:57:46.232Z,13.70
2018-09-01T08:00:14.700Z,13.80
2018-09-01T08:02:43.048Z,13.80
2018-09-01T08:05:11.164Z,13.90
2018-09-01T08:07:38.926Z,14.00
2018-09-01T08:10:07.725Z,14.00
2018-09-01T08:12:37.023Z,14.00
2018-09-01T08:15:05.635Z,14.10
2018-09-01T08:17:33.639Z,14.20
2018-09-01T08:20:02.513Z,14.20
2018-09-01T08:22:30.876Z,14.30
2018-09-01T08:25:00.333Z,14.40
2018-09-01T08:27:28.864Z,14.50
2018-09-01T08:29:57.874Z,14.60
2018-09-01T08:32:26.125Z,14.60
2018-09-01T08:34:54.544Z,14.80
2018-09-01T08:39:51.817Z,15.20
2018-09-01T08:42:19.998Z,15.40
2018-09-01T08:44:48.987Z,15.50
2018-09-01T08:47:16.723Z,15.60
2018-09-01T08:49:45.724Z,15.60
2018-09-01T08:55:00.312Z,15.60
2018-09-01T09:00:10.281Z,15.50
2018-09-01T09:02:38.384Z,15.40
2018-09-01T09:05:06.815Z,15.30
2018-09-01T09:07:34.950Z,15.20
2018-09-01T09:10:03.262Z,15.20
2018-09-01T09:12:31.363Z,15.10
2018-09-01T09:14:59.398Z,15.10
2018-09-01T09:17:28.480Z,15.00
2018-09-01T09:19:56.590Z,15.00
2018-09-01T09:22:24.780Z,15.00
2018-09-01T09:24:53.855Z,15.00
2018-09-01T09:27:22.171Z,15.00
2018-09-01T09:29:50.663Z,14.90
2018-09-01T09:32:20.081Z,14.90
2018-09-01T09:34:48.070Z,14.80
2018-09-01T09:37:16.227Z,14.80
2018-09-01T09:39:44.404Z,14.70
2018-09-01T09:42:12.511Z,14.70
2018-09-01T09:44:41.203Z,14.60
2018-09-01T09:47:09.720Z,14.60
2018-09-01T09:49:38.032Z,14.60
2018-09-01T09:52:06.385Z,14.60
2018-09-01T09:54:35.317Z,14.60
2018-09-01T09:57:03.290Z,14.50
2018-09-01T09:59:31.174Z,14.50
2018-09-01T10:02:01.826Z,14.50
2018-09-01T10:04:31.071Z,14.40
2018-09-01T10:07:00.324Z,14.40
2018-09-01T10:09:29.495Z,14.40
2018-09-01T10:11:57.899Z,14.40
2018-09-01T10:14:27.176Z,14.40
2018-09-01T10:16:56.042Z,14.40
2018-09-01T10:19:25.044Z,14.40
2018-09-01T10:21:53.221Z,14.40
2018-09-01T10:24:21.837Z,14.40
2018-09-01T10:26:50.671Z,14.30
2018-09-01T10:34:50.737Z,14.30
2018-09-01T10:37:20.071Z,14.30
2018-09-01T10:39:49.999Z,14.30
2018-09-01T10:42:18.863Z,14.30
2018-09-01T10:44:47.657Z,14.30
2018-09-01T10:47:16.155Z,14.20
2018-09-01T10:49:46.630Z,14.30
2018-09-01T10:52:15.976Z,14.30
2018-09-01T10:54:44.112Z,14.30
2018-09-01T10:57:14.116Z,14.30
2018-09-01T10:59:43.535Z,14.30
2018-09-01T11:02:11.380Z,14.30
2018-09-01T11:04:39.644Z,14.30
2018-09-01T11:07:08.065Z,14.40
2018-09-01T11:09:36.207Z,14.30
2018-09-01T11:12:04.247Z,14.40
2018-09-01T11:14:33.572Z,14.40
2018-09-01T11:17:01.702Z,14.40
2018-09-01T11:19:30.782Z,14.40
2018-09-01T11:21:58.972Z,14.40
2018-09-01T11:24:27.331Z,14.40
2018-09-01T11:26:55.975Z,14.40
2018-09-01T11:29:24.902Z,14.30
2018-09-01T11:31:53.219Z,14.30
2018-09-01T11:34:21.670Z,14.30
2018-09-01T11:36:50.891Z,14.30
2018-09-01T11:39:19.387Z,14.30
2018-09-01T11:41:47.589Z,14.30
2018-09-01T11:44:16.374Z,14.30
2018-09-01T11:46:44.555Z,14.30
2018-09-01T11:49:13.281Z,14.40
2018-09-01T11:51:41.121Z,14.50
2018-09-01T11:54:09.537Z,14.50
2018-09-01T11:56:38.126Z,14.50
2018-09-01T11:59:06.194Z,14.60
2018-09-01T12:01:34.561Z,14.60
2018-09-01T12:04:03.968Z,14.60
2018-09-01T12:06:32.852Z,14.60
2018-09-01T12:09:01.178Z,14.60
2018-09-01T12:11:29.465Z,14.60
2018-09-01T12:13:57.677Z,14.50
2018-09-01T12:16:26.293Z,14.50
2018-09-01T12:18:54.365Z,14.50
2018-09-01T12:21:22.960Z,14.50
2018-09-01T12:23:51.067Z,14.50
2018-09-01T12:26:19.736Z,14.50
2018-09-01T12:28:48.186Z,14.60
2018-09-01T12:31:16.365Z,14.60
2018-09-01T12:33:44.953Z,14.60
2018-09-01T12:36:13.616Z,14.70
2018-09-01T12:38:41.831Z,14.70
2018-09-01T12:41:09.813Z,14.70
2018-09-01T12:43:37.872Z,14.70
2018-09-01T12:46:06.108Z,14.60
2018-09-01T12:48:34.280Z,14.60
2018-09-01T12:51:02.568Z,14.60
2018-09-01T12:53:31.414Z,14.60
2018-09-01T12:55:59.447Z,14.60
2018-09-01T12:58:28.145Z,14.60
2018-09-01T13:00:56.343Z,14.60
2018-09-01T13:03:24.685Z,14.60
2018-09-01T13:05:52.872Z,14.60
2018-09-01T13:08:21.014Z,14.60
2018-09-01T13:10:49.538Z,14.60
2018-09-01T13:13:17.804Z,14.60
2018-09-01T13:15:46.134Z,14.60
2018-09-01T13:18:14.279Z,14.70
2018-09-01T13:20:42.623Z,14.70
2018-09-01T13:23:11.013Z,14.70
2018-09-01T13:25:39.832Z,14.70
2018-09-01T13:28:09.056Z,14.70
2018-09-01T13:30:36.775Z,14.70
2018-09-01T13:33:05.096Z,14.60
2018-09-01T13:35:32.936Z,14.60
2018-09-01T13:38:01.716Z,14.60
2018-09-01T13:40:29.734Z,14.60
2018-09-01T13:42:58.137Z,14.60
2018-09-01T13:45:26.360Z,14.60
2018-09-01T13:47:54.417Z,14.50
2018-09-01T13:50:22.832Z,14.50
2018-09-01T13:52:52.231Z,14.40
2018-09-01T13:55:20.209Z,14.30
2018-09-01T13:57:48.396Z,14.30
2018-09-01T14:00:16.557Z,14.20
2018-09-01T14:02:45.384Z,14.20
2018-09-01T14:05:13.421Z,14.20
2018-09-01T14:07:42.447Z,14.20
2018-09-01T14:10:10.524Z,14.10
2018-09-01T14:12:39.087Z,14.00
2018-09-01T14:15:07.499Z,13.90
2018-09-01T14:17:35.855Z,13.80
2018-09-01T14:20:04.930Z,13.80
2018-09-01T14:22:33.126Z,13.80
2018-09-01T14:25:02.846Z,13.80
2018-09-01T14:27:31.647Z,13.70
2018-09-01T14:30:00.059Z,13.70
2018-09-01T14:32:28.465Z,13.70
2018-09-01T14:40:32.758Z,13.70
2018-09-01T14:48:33.420Z,13.70
2018-09-01T14:51:03.083Z,13.70
2018-09-01T14:53:31.238Z,13.70
2018-09-01T14:56:00.075Z,13.50
2018-09-01T14:58:29.197Z,13.50
2018-09-01T15:00:58.224Z,13.40
2018-09-01T15:03:28.325Z,13.30
2018-09-01T15:05:57.422Z,13.30
2018-09-01T15:08:25.777Z,13.20
2018-09-01T15:10:56.232Z,13.10
2018-09-01T15:13:24.888Z,13.10
2018-09-01T15:15:54.074Z,13.10
2018-09-01T15:18:22.970Z,13.10
2018-09-01T15:20:51.557Z,13.10
2018-09-01T15:23:20.166Z,13.00
2018-09-01T15:25:49.669Z,13.10
2018-09-01T15:28:18.725Z,13.00
2018-09-01T15:30:47.225Z,13.10
2018-09-01T15:33:16.760Z,13.10
2018-09-01T15:35:45.894Z,13.10
2018-09-01T15:38:15.128Z,13.10
2018-09-01T15:40:43.723Z,13.10
2018-09-01T15:43:12.548Z,13.10
2018-09-01T15:45:42.814Z,13.10
2018-09-01T15:50:57.605Z,13.10
2018-09-01T15:53:26.591Z,13.10
2018-09-01T15:55:55.921Z,13.20
2018-09-01T15:58:25.028Z,13.20
2018-09-01T16:00:54.908Z,13.20
2018-09-01T16:03:24.242Z,13.20
2018-09-01T16:05:53.519Z,13.20
2018-09-01T16:08:23.519Z,13.20
2018-09-01T16:10:52.009Z,13.20
2018-09-01T16:13:30.736Z,13.30
2018-09-01T16:16:00.195Z,13.20
2018-09-01T16:18:28.824Z,13.20
2018-09-01T16:20:59.325Z,13.20
2018-09-01T16:23:28.708Z,13.30
2018-09-01T16:31:31.609Z,13.30
2018-09-01T16:34:01.043Z,13.30
2018-09-01T16:36:29.864Z,13.30
2018-09-01T16:38:59.321Z,13.20
2018-09-01T16:41:27.898Z,13.20
2018-09-01T16:43:57.252Z,13.20
2018-09-01T16:46:27.074Z,13.20
2018-09-01T16:48:55.845Z,13.20
2018-09-01T16:51:24.944Z,13.30
2018-09-01T16:54:00.052Z,13.30
2018-09-01T16:56:29.057Z,13.30
2018-09-01T16:58:58.805Z,13.30
2018-09-01T17:01:27.994Z,13.30
2018-09-01T17:03:57.110Z,13.30
2018-09-01T17:06:26.334Z,13.40
2018-09-01T17:08:57.641Z,13.40
2018-09-01T17:11:26.418Z,13.40
2018-09-01T17:13:56.307Z,13.40
2018-09-01T17:16:25.039Z,13.30
2018-09-01T17:18:55.571Z,13.30
2018-09-01T17:21:26.123Z,13.30
2018-09-01T17:23:56.665Z,13.30
2018-09-01T17:26:26.344Z,13.30
2018-09-01T17:28:55.657Z,13.30
2018-09-01T17:31:25.537Z,13.30
2018-09-01T17:33:55.030Z,13.30
2018-09-01T17:36:25.583Z,13.30
2018-09-01T17:38:55.617Z,13.30
2018-09-01T17:41:27.175Z,13.30
2018-09-01T17:43:56.880Z,13.30
2018-09-01T17:46:26.220Z,13.30
2018-09-01T17:51:48.958Z,13.30
2018-09-01T17:54:19.682Z,13.20
2018-09-01T17:56:49.590Z,13.20
2018-09-01T17:59:20.772Z,13.20
2018-09-01T18:01:52.075Z,13.20
2018-09-01T18:04:21.573Z,13.20
2018-09-01T18:06:51.211Z,13.20
2018-09-01T18:09:22.901Z,13.20
2018-09-01T18:11:53.550Z,13.20
2018-09-01T18:14:23.508Z,13.20
2018-09-01T18:16:52.705Z,13.30
2018-09-01T18:19:21.630Z,13.20
2018-09-01T18:21:53.112Z,13.30
2018-09-01T18:24:22.772Z,13.20
2018-09-01T18:26:53.267Z,13.20
2018-09-01T18:29:22.943Z,13.20
2018-09-01T18:31:52.219Z,13.20
2018-09-01T18:34:22.433Z,13.10
2018-09-01T18:36:51.661Z,13.10
2018-09-01T18:39:20.771Z,13.10
2018-09-01T18:44:43.058Z,13.10
2018-09-01T18:47:12.845Z,13.10
2018-09-01T18:49:42.500Z,13.10
2018-09-01T18:52:12.215Z,13.10
2018-09-01T18:54:42.472Z,13.10
2018-09-01T18:57:12.061Z,13.10
2018-09-01T18:59:40.631Z,13.10
2018-09-01T19:02:10.421Z,13.10
2018-09-01T19:04:39.319Z,13.10
2018-09-01T19:07:08.481Z,13.10
2018-09-01T19:09:38.466Z,13.10
2018-09-01T19:12:07.036Z,13.10
2018-09-01T19:14:38.059Z,13.10
2018-09-01T19:17:07.118Z,13.10
2018-09-01T19:19:36.887Z,13.00
2018-09-01T19:22:07.087Z,13.00
2018-09-01T19:24:37.521Z,13.00
2018-09-01T19:27:06.566Z,13.00
2018-09-01T19:29:36.098Z,13.00
2018-09-01T19:32:07.484Z,13.00
2018-09-01T19:34:37.322Z,13.00
2018-09-01T19:37:06.649Z,13.00
2018-09-01T19:39:35.490Z,13.00
2018-09-01T19:42:04.551Z,13.00
2018-09-01T19:44:34.379Z,12.90
2018-09-01T19:47:04.297Z,12.90
2018-09-01T19:49:32.921Z,12.90
2018-09-01T19:52:03.090Z,12.90
2018-09-01T19:54:33.092Z,12.90
2018-09-01T19:57:02.129Z,12.80
2018-09-01T19:59:31.488Z,12.80
2018-09-01T20:02:00.285Z,12.80
2018-09-01T20:07:13.753Z,12.70
2018-09-01T20:09:42.811Z,12.70
2018-09-01T20:12:11.229Z,12.70
2018-09-01T20:14:39.542Z,12.70
2018-09-01T20:17:08.964Z,12.70
2018-09-01T20:19:37.360Z,12.70
2018-09-01T20:22:07.624Z,12.70
2018-09-01T20:24:36.442Z,12.70
2018-09-01T20:27:04.925Z,12.70
2018-09-01T20:29:33.824Z,12.70
2018-09-01T20:32:03.945Z,12.70
2018-09-01T20:34:32.267Z,12.70
2018-09-01T20:37:02.537Z,12.70
2018-09-01T20:39:31.168Z,12.70
2018-09-01T20:42:00.014Z,12.70
2018-09-01T20:44:29.198Z,12.60
2018-09-01T20:46:57.983Z,12.70
2018-09-01T20:49:26.859Z,12.70
2018-09-01T20:51:55.494Z,12.60
2018-09-01T20:54:23.951Z,12.70
2018-09-01T20:56:53.110Z,12.70
2018-09-01T20:59:21.785Z,12.60
2018-09-01T21:01:50.451Z,12.60
2018-09-01T21:04:19.820Z,12.60
2018-09-01T21:06:48.842Z,12.60
2018-09-01T21:09:17.655Z,12.60
2018-09-01T21:11:47.374Z,12.60
2018-09-01T21:14:16.770Z,12.60
2018-09-01T21:16:45.560Z,12.60
2018-09-01T21:19:14.132Z,12.60
2018-09-01T21:21:43.851Z,12.60
2018-09-01T21:24:12.810Z,12.60
2018-09-01T21:26:42.218Z,12.60
2018-09-01T21:29:11.863Z,12.60
2018-09-01T21:31:40.705Z,12.60
2018-09-01T21:34:12.074Z,12.60
2018-09-01T21:36:40.741Z,12.60
2018-09-01T21:39:09.443Z,12.70
2018-09-01T21:41:43.889Z,12.70
2018-09-01T21:44:14.704Z,12.70
2018-09-01T21:46:43.739Z,12.70
2018-09-01T21:49:12.371Z,12.70
2018-09-01T21:51:41.466Z,12.70
2018-09-01T21:54:10.232Z,12.70
2018-09-01T21:56:38.583Z,12.70
2018-09-01T21:59:07.127Z,12.70
2018-09-01T22:01:37.628Z,12.70
2018-09-01T22:04:06.305Z,12.70
2018-09-01T22:06:35.077Z,12.70
2018-09-01T22:09:03.378Z,12.70
2018-09-01T22:11:31.942Z,12.70
2018-09-01T22:14:00.690Z,12.70
2018-09-01T22:16:29.048Z,12.70
2018-09-01T22:18:58.147Z,12.70
2018-09-01T22:21:27.490Z,12.70
2018-09-01T22:23:57.186Z,12.70
2018-09-01T22:26:25.808Z,12.70
2018-09-01T22:28:54.601Z,12.70
2018-09-01T22:31:24.422Z,12.70
2018-09-01T22:33:53.106Z,12.70
2018-09-01T22:36:23.232Z,12.70
2018-09-01T22:38:54.806Z,12.70
2018-09-01T22:41:23.818Z,12.70
2018-09-01T22:43:52.300Z,12.70
2018-09-01T22:46:21.719Z,12.70
2018-09-01T22:48:50.525Z,12.70
2018-09-01T22:51:19.071Z,12.70
2018-09-01T22:53:48.947Z,12.70
2018-09-01T22:56:19.084Z,12.80
2018-09-01T22:58:48.022Z,12.80
2018-09-01T23:01:17.244Z,12.80
2018-09-01T23:03:46.156Z,12.80
2018-09-01T23:06:14.878Z,12.80
2018-09-01T23:08:43.688Z,12.70
2018-09-01T23:11:12.794Z,12.70
2018-09-01T23:13:41.521Z,12.70
2018-09-01T23:16:12.562Z,12.70
2018-09-01T23:18:41.258Z,12.80
2018-09-01T23:21:10.336Z,12.80
2018-09-01T23:23:40.178Z,12.80
2018-09-01T23:26:08.536Z,12.80
2018-09-01T23:28:37.726Z,12.80
2018-09-01T23:31:06.776Z,12.80
2018-09-01T23:33:36.413Z,12.80
2018-09-01T23:36:06.197Z,12.80
2018-09-01T23:38:35.043Z,12.90
2018-09-01T23:41:04.692Z,12.90
2018-09-01T23:43:34.159Z,12.90
2018-09-01T23:46:04.004Z,12.90
2018-09-01T23:48:32.524Z,12.90
2018-09-01T23:51:01.560Z,12.90
2018-09-01T23:53:30.345Z,12.90
2018-09-01T23:56:06.097Z,12.80
2018-09-01T23:58:35.662Z,12.90
